createdAt,value
2023-05-19T00:01:20.288Z,11.40
2023-05-19T00:03:57.569Z,11.38
2023-05-19T00:06:31.731Z,11.37
2023-05-19T00:09:04.618Z,11.35
2023-05-19T00:11:31.817Z,11.38
2023-05-19T00:14:00.045Z,11.33
2023-05-19T00:16:28.523Z,11.30
2023-05-19T00:18:57.964Z,11.27
2023-05-19T00:21:25.061Z,11.28
2023-05-19T00:23:52.543Z,11.27
2023-05-19T00:26:19.632Z,11.29
2023-05-19T00:28:46.722Z,11.31
2023-05-19T00:31:13.839Z,11.30
2023-05-19T00:33:40.896Z,11.26
2023-05-19T00:36:08.488Z,11.25
2023-05-19T00:38:36.617Z,11.21
2023-05-19T00:41:04.836Z,11.17
2023-05-19T00:43:34.250Z,11.14
2023-05-19T00:46:01.437Z,11.14
2023-05-19T00:48:28.518Z,11.11
2023-05-19T00:51:02.439Z,11.10
2023-05-19T00:53:30.972Z,11.06
2023-05-19T00:55:58.736Z,11.02
2023-05-19T00:58:29.342Z,10.98
2023-05-19T01:01:03.106Z,10.97
2023-05-19T01:03:33.010Z,10.92
2023-05-19T01:06:07.510Z,10.92
2023-05-19T01:08:37.132Z,10.92
2023-05-19T01:11:08.005Z,10.93
2023-05-19T01:13:35.819Z,10.94
2023-05-19T01:16:12.685Z,10.98
2023-05-19T01:18:46.369Z,10.96
2023-05-19T01:21:26.748Z,10.97
2023-05-19T01:24:27.922Z,10.94
2023-05-19T01:27:16.931Z,10.93
2023-05-19T01:30:11.824Z,10.97
2023-05-19T01:32:41.994Z,11.00
2023-05-19T01:35:10.539Z,10.99
2023-05-19T01:37:39.044Z,11.01
2023-05-19T01:40:08.281Z,11.03
2023-05-19T01:42:37.867Z,11.05
2023-05-19T01:45:06.773Z,11.06
2023-05-19T01:47:38.379Z,11.05
2023-05-19T01:50:06.623Z,11.07
2023-05-19T01:52:33.793Z,11.07
2023-05-19T01:55:00.984Z,11.04
2023-05-19T01:57:34.487Z,11.05
2023-05-19T02:00:15.649Z,11.03
2023-05-19T02:03:07.430Z,10.98
2023-05-19T02:05:46.263Z,10.97
2023-05-19T02:08:19.724Z,10.95
2023-05-19T02:10:51.868Z,10.93
2023-05-19T02:13:21.440Z,10.91
2023-05-19T02:15:51.556Z,10.89
2023-05-19T02:18:20.356Z,10.85
2023-05-19T02:20:48.537Z,10.82
2023-05-19T02:23:15.837Z,10.77
2023-05-19T02:25:43.033Z,10.75
2023-05-19T02:28:10.302Z,10.72
2023-05-19T02:30:37.694Z,10.66
2023-05-19T02:33:06.678Z,10.63
2023-05-19T02:35:33.925Z,10.61
2023-05-19T02:38:01.140Z,10.59
2023-05-19T02:40:28.331Z,10.58
2023-05-19T02:42:57.021Z,10.57
2023-05-19T02:45:24.201Z,10.54
2023-05-19T02:47:51.557Z,10.48
2023-05-19T02:50:18.832Z,10.46
2023-05-19T02:52:45.931Z,10.42
2023-05-19T02:55:17.386Z,10.37
2023-05-19T02:57:44.617Z,10.37
2023-05-19T03:00:12.254Z,10.36
2023-05-19T03:02:39.762Z,10.31
2023-05-19T03:05:08.226Z,10.28
2023-05-19T03:07:35.298Z,10.28
2023-05-19T03:10:06.586Z,10.23
2023-05-19T03:12:33.841Z,10.18
2023-05-19T03:15:01.095Z,10.18
2023-05-19T03:17:33.621Z,10.14
2023-05-19T03:20:01.560Z,10.09
2023-05-19T03:22:28.660Z,10.06
2023-05-19T03:24:55.947Z,9.99
2023-05-19T03:27:23.093Z,9.94
2023-05-19T03:29:50.772Z,9.88
2023-05-19T03:32:17.884Z,9.80
2023-05-19T03:34:45.126Z,9.75
2023-05-19T03:37:12.988Z,9.70
2023-05-19T03:39:40.090Z,9.67
2023-05-19T03:42:07.224Z,9.63
2023-05-19T03:44:34.299Z,9.54
2023-05-19T03:47:01.385Z,9.50
2023-05-19T03:49:28.529Z,9.43
2023-05-19T03:51:55.904Z,9.46
2023-05-19T03:54:23.262Z,9.41
2023-05-19T03:56:50.345Z,9.40
2023-05-19T03:59:17.403Z,9.41
2023-05-19T04:01:44.502Z,9.34
2023-05-19T04:04:11.640Z,9.27
2023-05-19T04:06:38.835Z,9.28
2023-05-19T04:09:11.963Z,9.22
2023-05-19T04:11:39.757Z,9.24
2023-05-19T04:14:07.245Z,9.24
2023-05-19T04:16:34.390Z,9.26
2023-05-19T04:19:01.885Z,9.27
2023-05-19T04:21:29.138Z,9.33
2023-05-19T04:23:58.038Z,9.41
2023-05-19T04:26:26.403Z,9.50
2023-05-19T04:28:53.929Z,9.60
2023-05-19T04:31:21.800Z,9.68
2023-05-19T04:33:49.715Z,9.78
2023-05-19T04:36:21.449Z,9.85
2023-05-19T04:38:48.901Z,9.91
2023-05-19T04:41:16.510Z,10.01
2023-05-19T04:43:44.765Z,10.09
2023-05-19T04:46:13.690Z,10.19
2023-05-19T04:48:41.392Z,10.25
2023-05-19T04:51:08.596Z,10.32
2023-05-19T04:53:36.666Z,10.38
2023-05-19T04:56:05.120Z,10.47
2023-05-19T04:58:32.392Z,10.52
2023-05-19T05:00:59.463Z,10.59
2023-05-19T05:03:26.739Z,10.64
2023-05-19T05:05:54.041Z,10.71
2023-05-19T05:08:23.335Z,10.76
2023-05-19T05:10:52.443Z,10.77
2023-05-19T05:13:21.786Z,10.78
2023-05-19T05:15:49.320Z,10.82
2023-05-19T05:18:16.584Z,10.88
2023-05-19T05:20:44.568Z,10.98
2023-05-19T05:23:14.510Z,11.00
2023-05-19T05:25:42.612Z,11.07
2023-05-19T05:28:09.835Z,11.14
2023-05-19T05:30:36.972Z,11.15
2023-05-19T05:33:04.202Z,11.20
2023-05-19T05:35:31.571Z,11.23
2023-05-19T05:37:59.111Z,11.29
2023-05-19T05:40:26.304Z,11.40
2023-05-19T05:42:56.302Z,11.47
2023-05-19T05:45:23.527Z,11.54
2023-05-19T05:47:50.938Z,11.59
2023-05-19T05:50:18.707Z,11.70
2023-05-19T05:52:47.417Z,11.81
2023-05-19T05:55:17.533Z,11.87
2023-05-19T05:57:44.943Z,11.88
2023-05-19T06:00:15.953Z,11.94
2023-05-19T06:02:49.403Z,11.92
2023-05-19T06:05:17.123Z,11.96
2023-05-19T06:07:44.328Z,11.99
2023-05-19T06:10:11.850Z,12.02
2023-05-19T06:12:43.192Z,12.02
2023-05-19T06:15:10.480Z,11.97
2023-05-19T06:17:37.651Z,11.99
2023-05-19T06:20:08.765Z,11.99
2023-05-19T06:22:36.194Z,12.02
2023-05-19T06:25:03.706Z,11.99
2023-05-19T06:27:32.649Z,12.02
2023-05-19T06:30:02.450Z,12.03
2023-05-19T06:32:29.958Z,12.05
2023-05-19T06:34:57.087Z,12.08
2023-05-19T06:37:24.209Z,12.10
2023-05-19T06:39:54.316Z,12.13
2023-05-19T06:42:25.271Z,12.17
2023-05-19T06:44:53.106Z,12.23
2023-05-19T06:47:20.303Z,12.29
2023-05-19T06:49:51.566Z,12.34
2023-05-19T06:52:18.627Z,12.35
2023-05-19T06:54:46.008Z,12.39
2023-05-19T06:57:13.108Z,12.46
2023-05-19T06:59:43.572Z,12.53
2023-05-19T07:02:10.762Z,12.61
2023-05-19T07:04:39.519Z,12.71
2023-05-19T07:07:06.616Z,12.80
2023-05-19T07:09:33.781Z,12.89
2023-05-19T07:12:01.390Z,13.00
2023-05-19T07:14:28.528Z,13.04
2023-05-19T07:16:55.634Z,13.08
2023-05-19T07:19:24.029Z,13.17
2023-05-19T07:21:51.475Z,13.16
2023-05-19T07:24:19.512Z,13.29
2023-05-19T07:26:46.618Z,13.34
2023-05-19T07:29:13.712Z,13.47
2023-05-19T07:31:40.921Z,13.64
2023-05-19T07:34:08.705Z,13.91
2023-05-19T07:36:35.974Z,14.25
2023-05-19T07:39:03.396Z,14.55
2023-05-19T07:41:30.693Z,14.75
2023-05-19T07:43:57.798Z,14.95
2023-05-19T07:46:24.964Z,15.22
2023-05-19T07:48:52.206Z,15.31
2023-05-19T07:51:19.531Z,15.50
2023-05-19T07:53:48.454Z,15.68
2023-05-19T07:56:15.644Z,15.90
2023-05-19T07:58:42.761Z,16.17
2023-05-19T08:01:09.870Z,16.38
2023-05-19T08:03:37.112Z,16.54
2023-05-19T08:06:04.570Z,16.55
2023-05-19T08:08:33.259Z,16.58
2023-05-19T08:11:04.757Z,16.72
2023-05-19T08:13:31.848Z,16.75
2023-05-19T08:16:00.110Z,16.89
2023-05-19T08:18:27.299Z,17.14
2023-05-19T08:20:54.565Z,17.29
2023-05-19T08:23:21.875Z,17.45
2023-05-19T08:25:48.985Z,17.60
2023-05-19T08:28:16.052Z,17.71
2023-05-19T08:30:43.123Z,17.81
2023-05-19T08:33:10.795Z,17.77
2023-05-19T08:35:37.978Z,17.67
2023-05-19T08:38:05.060Z,17.72
2023-05-19T08:40:33.941Z,17.54
2023-05-19T08:43:01.257Z,17.32
2023-05-19T08:45:28.390Z,17.21
2023-05-19T08:47:55.942Z,17.19
2023-05-19T08:50:25.158Z,17.16
2023-05-19T08:52:57.719Z,17.12
2023-05-19T08:55:38.695Z,17.07
2023-05-19T08:58:05.991Z,17.06
2023-05-19T09:00:34.003Z,17.10
2023-05-19T09:05:33.832Z,17.09
2023-05-19T09:08:02.757Z,17.21
2023-05-19T09:10:29.854Z,17.34
2023-05-19T09:12:56.976Z,17.51
2023-05-19T09:15:27.810Z,17.71
2023-05-19T09:18:12.021Z,17.91
2023-05-19T09:20:40.654Z,17.89
2023-05-19T09:23:08.327Z,18.01
2023-05-19T09:25:35.555Z,18.05
2023-05-19T09:28:02.873Z,18.04
2023-05-19T09:30:30.035Z,18.09
2023-05-19T09:32:57.191Z,18.14
2023-05-19T09:35:24.754Z,18.13
2023-05-19T09:37:51.902Z,18.17
2023-05-19T09:40:19.045Z,18.12
2023-05-19T09:42:46.194Z,18.11
2023-05-19T09:45:13.388Z,18.03
2023-05-19T09:47:41.879Z,18.01
2023-05-19T09:50:10.915Z,17.96
2023-05-19T09:52:38.973Z,17.88
2023-05-19T09:55:09.595Z,17.79
2023-05-19T09:57:37.632Z,17.64
2023-05-19T10:00:14.394Z,17.60
2023-05-19T10:02:44.985Z,17.72
2023-05-19T10:05:16.987Z,17.87
2023-05-19T10:07:45.757Z,17.93
2023-05-19T10:10:13.952Z,17.94
2023-05-19T10:12:41.779Z,17.65
2023-05-19T10:15:10.854Z,17.76
2023-05-19T10:17:39.130Z,17.88
2023-05-19T10:20:17.137Z,18.07
2023-05-19T10:22:46.193Z,18.02
2023-05-19T10:25:15.173Z,18.10
2023-05-19T10:27:45.120Z,18.33
2023-05-19T10:30:16.477Z,18.51
2023-05-19T10:32:45.243Z,18.59
2023-05-19T10:35:20.329Z,18.73
2023-05-19T10:37:58.331Z,18.87
2023-05-19T10:40:28.823Z,18.91
2023-05-19T10:43:08.599Z,19.01
2023-05-19T10:45:42.270Z,19.07
2023-05-19T10:48:15.529Z,19.18
2023-05-19T10:50:46.817Z,19.01
2023-05-19T10:53:18.257Z,18.87
2023-05-19T10:56:03.422Z,18.84
2023-05-19T10:58:40.888Z,18.81
2023-05-19T11:01:09.999Z,18.68
2023-05-19T11:04:07.996Z,18.79
2023-05-19T11:06:36.301Z,18.94
2023-05-19T11:09:12.516Z,19.14
2023-05-19T11:11:48.116Z,19.29
2023-05-19T11:14:20.147Z,19.24
2023-05-19T11:16:52.001Z,19.13
2023-05-19T11:19:28.397Z,19.16
2023-05-19T11:21:57.157Z,19.29
2023-05-19T11:24:35.137Z,19.25
2023-05-19T11:27:31.733Z,19.35
2023-05-19T11:30:11.433Z,19.32
2023-05-19T11:32:41.229Z,19.30
2023-05-19T11:35:09.919Z,19.14
2023-05-19T11:37:37.062Z,18.98
2023-05-19T11:40:08.049Z,18.90
2023-05-19T11:42:37.234Z,18.82
2023-05-19T11:45:05.031Z,18.79
2023-05-19T11:47:46.031Z,18.81
2023-05-19T11:50:21.983Z,18.84
2023-05-19T11:52:49.083Z,18.88
2023-05-19T11:55:17.310Z,18.88
2023-05-19T11:58:05.482Z,18.80
2023-05-19T12:00:37.944Z,18.76
2023-05-19T12:03:06.876Z,18.78
2023-05-19T12:05:40.860Z,18.69
2023-05-19T12:08:11.256Z,18.71
2023-05-19T12:10:39.183Z,18.81
2023-05-19T12:13:09.006Z,18.90
2023-05-19T12:15:37.249Z,19.00
2023-05-19T12:18:04.462Z,18.92
2023-05-19T12:20:32.519Z,18.76
2023-05-19T12:23:00.676Z,18.72
2023-05-19T12:25:29.262Z,18.67
2023-05-19T12:28:00.205Z,18.61
2023-05-19T12:30:29.052Z,18.57
2023-05-19T12:32:57.817Z,18.59
2023-05-19T12:35:36.197Z,18.66
2023-05-19T12:38:05.359Z,18.64
2023-05-19T12:40:36.423Z,18.65
2023-05-19T12:43:04.468Z,18.65
2023-05-19T12:45:35.621Z,18.58
2023-05-19T12:48:06.733Z,18.57
2023-05-19T12:50:34.544Z,18.45
2023-05-19T12:53:02.065Z,18.33
2023-05-19T12:55:29.734Z,18.39
2023-05-19T12:57:58.106Z,18.49
2023-05-19T13:00:28.534Z,18.53
2023-05-19T13:03:01.880Z,18.56
2023-05-19T13:05:31.473Z,18.56
2023-05-19T13:07:59.961Z,18.45
2023-05-19T13:10:27.859Z,18.46
2023-05-19T13:12:55.757Z,18.39
2023-05-19T13:15:26.719Z,18.40
2023-05-19T13:17:54.581Z,18.35
2023-05-19T13:20:22.012Z,18.29
2023-05-19T13:22:49.507Z,18.20
2023-05-19T13:25:16.923Z,18.12
2023-05-19T13:27:47.909Z,18.10
2023-05-19T13:30:20.392Z,18.14
2023-05-19T13:32:47.904Z,18.16
2023-05-19T13:35:15.532Z,18.16
2023-05-19T13:37:42.852Z,18.18
2023-05-19T13:40:10.974Z,18.17
2023-05-19T13:42:38.152Z,18.27
2023-05-19T13:45:05.590Z,18.31
2023-05-19T13:47:32.880Z,18.34
2023-05-19T13:50:00.050Z,18.35
2023-05-19T13:52:29.096Z,18.37
2023-05-19T13:54:57.599Z,18.27
2023-05-19T13:57:25.501Z,18.22
2023-05-19T14:00:01.966Z,18.27
2023-05-19T14:02:30.883Z,18.30
2023-05-19T14:04:58.195Z,18.38
2023-05-19T14:07:25.742Z,18.36
2023-05-19T14:09:53.302Z,18.31
2023-05-19T14:12:23.307Z,18.18
2023-05-19T14:14:52.413Z,18.14
2023-05-19T14:17:19.488Z,18.08
2023-05-19T14:19:46.582Z,18.02
2023-05-19T14:22:13.700Z,17.96
2023-05-19T14:24:41.578Z,17.95
2023-05-19T14:27:08.711Z,17.87
2023-05-19T14:29:35.810Z,17.78
2023-05-19T14:32:03.832Z,17.74
2023-05-19T14:34:31.022Z,17.69
2023-05-19T14:36:58.109Z,17.64
2023-05-19T14:39:25.194Z,17.55
2023-05-19T14:41:53.139Z,17.46
2023-05-19T14:44:20.396Z,17.44
2023-05-19T14:46:47.531Z,17.45
2023-05-19T14:49:15.597Z,17.44
2023-05-19T14:51:42.669Z,17.43
2023-05-19T14:54:09.893Z,17.42
2023-05-19T14:56:37.014Z,17.41
2023-05-19T14:59:04.483Z,17.37
2023-05-19T15:01:32.366Z,17.32
2023-05-19T15:03:59.611Z,17.33
2023-05-19T15:06:26.850Z,17.38
2023-05-19T15:08:53.934Z,17.43
2023-05-19T15:11:21.069Z,17.43
2023-05-19T15:13:48.172Z,17.42
2023-05-19T15:16:16.950Z,17.37
2023-05-19T15:18:45.497Z,17.32
2023-05-19T15:21:12.796Z,17.30
2023-05-19T15:23:39.888Z,17.21
2023-05-19T15:26:07.056Z,17.19
2023-05-19T15:28:34.353Z,17.07
2023-05-19T15:31:01.542Z,17.06
2023-05-19T15:33:28.744Z,17.04
2023-05-19T15:35:57.152Z,17.11
2023-05-19T15:38:24.309Z,17.18
2023-05-19T15:40:51.638Z,17.15
2023-05-19T15:43:19.935Z,17.12
2023-05-19T15:45:47.941Z,17.17
2023-05-19T15:48:15.090Z,17.22
2023-05-19T15:50:42.324Z,17.24
2023-05-19T15:53:10.601Z,17.26
2023-05-19T15:55:37.686Z,17.30
2023-05-19T15:58:04.831Z,17.30
2023-05-19T16:00:32.097Z,17.18
2023-05-19T16:02:59.438Z,17.03
2023-05-19T16:05:26.784Z,16.91
2023-05-19T16:07:53.929Z,16.95
2023-05-19T16:10:21.416Z,17.02
2023-05-19T16:12:48.483Z,17.01
2023-05-19T16:15:15.640Z,16.98
2023-05-19T16:17:42.835Z,16.85
2023-05-19T16:20:10.630Z,16.75
2023-05-19T16:22:37.749Z,16.67
2023-05-19T16:25:05.485Z,16.60
2023-05-19T16:27:32.558Z,16.52
2023-05-19T16:30:01.120Z,16.46
2023-05-19T16:32:28.329Z,16.50
2023-05-19T16:34:55.431Z,16.60
2023-05-19T16:37:22.501Z,16.58
2023-05-19T16:39:49.808Z,16.51
2023-05-19T16:42:16.881Z,16.40
2023-05-19T16:44:43.985Z,16.32
2023-05-19T16:47:11.186Z,16.29
2023-05-19T16:49:40.352Z,16.26
2023-05-19T16:52:08.015Z,16.34
2023-05-19T16:54:35.249Z,16.36
2023-05-19T16:57:02.631Z,16.31
2023-05-19T16:59:29.699Z,16.22
2023-05-19T17:01:56.930Z,16.12
2023-05-19T17:04:24.170Z,16.11
2023-05-19T17:06:51.313Z,16.04
2023-05-19T17:09:24.892Z,16.04
2023-05-19T17:11:52.718Z,16.03
2023-05-19T17:14:19.840Z,15.99
2023-05-19T17:16:47.721Z,15.94
2023-05-19T17:19:16.416Z,15.92
2023-05-19T17:21:43.575Z,15.87
2023-05-19T17:24:11.693Z,15.76
2023-05-19T17:26:38.858Z,15.67
2023-05-19T17:29:06.152Z,15.62
2023-05-19T17:31:33.442Z,15.53
2023-05-19T17:34:00.625Z,15.45
2023-05-19T17:36:27.710Z,15.45
2023-05-19T17:38:54.886Z,15.47
2023-05-19T17:41:22.000Z,15.41
2023-05-19T17:43:49.090Z,15.42
2023-05-19T17:46:16.336Z,15.40
2023-05-19T17:48:43.788Z,15.31
2023-05-19T17:51:11.395Z,15.22
2023-05-19T17:53:38.720Z,15.11
2023-05-19T17:56:07.339Z,15.05
2023-05-19T17:58:34.700Z,14.95
2023-05-19T18:01:02.041Z,14.93
2023-05-19T18:03:29.568Z,14.91
2023-05-19T18:05:56.999Z,14.86
2023-05-19T18:08:24.481Z,14.88
2023-05-19T18:10:52.583Z,14.84
2023-05-19T18:13:19.726Z,14.81
2023-05-19T18:15:46.873Z,14.75
2023-05-19T18:18:14.022Z,14.69
2023-05-19T18:20:45.080Z,14.64
2023-05-19T18:23:12.486Z,14.63
2023-05-19T18:25:39.584Z,14.63
2023-05-19T18:28:06.728Z,14.58
2023-05-19T18:30:34.039Z,14.57
2023-05-19T18:33:04.072Z,14.55
2023-05-19T18:35:31.535Z,14.53
2023-05-19T18:37:58.639Z,14.49
2023-05-19T18:40:25.960Z,14.42
2023-05-19T18:42:53.052Z,14.40
2023-05-19T18:45:20.532Z,14.37
2023-05-19T18:47:47.681Z,14.37
2023-05-19T18:50:14.949Z,14.34
2023-05-19T18:52:42.050Z,14.37
2023-05-19T18:55:09.868Z,14.32
2023-05-19T18:57:36.973Z,14.31
2023-05-19T19:00:04.432Z,14.31
2023-05-19T19:02:31.653Z,14.28
2023-05-19T19:04:58.962Z,14.25
2023-05-19T19:07:27.723Z,14.18
2023-05-19T19:09:54.857Z,14.18
2023-05-19T19:12:21.932Z,14.18
2023-05-19T19:14:49.513Z,14.15
2023-05-19T19:17:16.747Z,14.06
2023-05-19T19:19:43.967Z,13.99
2023-05-19T19:22:11.180Z,13.99
2023-05-19T19:24:38.325Z,13.95
2023-05-19T19:27:05.588Z,13.94
2023-05-19T19:29:32.754Z,13.93
2023-05-19T19:31:59.925Z,13.95
2023-05-19T19:34:27.411Z,13.88
2023-05-19T19:36:54.590Z,13.83
2023-05-19T19:39:21.695Z,13.79
2023-05-19T19:41:48.800Z,13.73
2023-05-19T19:44:15.989Z,13.74
2023-05-19T19:46:43.145Z,13.66
2023-05-19T19:49:10.433Z,13.64
2023-05-19T19:51:37.532Z,13.63
2023-05-19T19:54:04.629Z,13.66
2023-05-19T19:56:32.381Z,13.59
2023-05-19T19:59:00.148Z,13.60
2023-05-19T20:01:27.971Z,13.61
2023-05-19T20:03:55.548Z,13.62
2023-05-19T20:06:23.051Z,13.62
2023-05-19T20:08:50.801Z,13.57
2023-05-19T20:11:17.961Z,13.56
2023-05-19T20:13:45.038Z,13.57
2023-05-19T20:16:12.173Z,13.55
2023-05-19T20:18:39.570Z,13.57
2023-05-19T20:21:06.961Z,13.41
2023-05-19T20:23:34.151Z,13.39
2023-05-19T20:26:11.891Z,13.37
2023-05-19T20:28:40.162Z,13.37
2023-05-19T20:31:07.542Z,13.33
2023-05-19T20:33:34.766Z,13.36
2023-05-19T20:36:01.925Z,13.27
2023-05-19T20:38:29.290Z,13.29
2023-05-19T20:40:56.476Z,13.20
2023-05-19T20:43:23.590Z,13.15
2023-05-19T20:45:51.296Z,13.06
2023-05-19T20:48:18.593Z,13.04
2023-05-19T20:50:45.786Z,13.12
2023-05-19T20:53:12.912Z,13.06
2023-05-19T20:55:40.320Z,12.96
2023-05-19T20:58:07.904Z,12.97
2023-05-19T21:00:35.435Z,13.00
2023-05-19T21:03:02.840Z,13.06
2023-05-19T21:05:30.138Z,13.09
2023-05-19T21:07:57.295Z,13.07
2023-05-19T21:10:24.426Z,13.03
2023-05-19T21:12:51.562Z,13.07
2023-05-19T21:15:18.803Z,13.07
2023-05-19T21:17:46.676Z,13.09
2023-05-19T21:20:14.250Z,12.94
2023-05-19T21:22:42.079Z,12.96
2023-05-19T21:25:10.676Z,12.93
2023-05-19T21:27:39.440Z,12.86
2023-05-19T21:30:07.741Z,12.86
2023-05-19T21:32:34.976Z,12.93
2023-05-19T21:35:02.321Z,12.97
2023-05-19T21:37:29.701Z,12.99
2023-05-19T21:39:56.816Z,13.01
2023-05-19T21:42:23.960Z,12.98
2023-05-19T21:44:51.068Z,13.02
2023-05-19T21:47:18.291Z,12.97
2023-05-19T21:49:45.524Z,12.96
2023-05-19T21:52:12.609Z,13.00
2023-05-19T21:54:39.694Z,13.01
2023-05-19T21:57:06.858Z,13.02
2023-05-19T21:59:33.956Z,13.00
2023-05-19T22:02:01.052Z,12.98
2023-05-19T22:04:31.499Z,12.98
2023-05-19T22:06:58.682Z,12.94
2023-05-19T22:09:26.165Z,12.98
2023-05-19T22:11:53.413Z,12.98
2023-05-19T22:14:20.526Z,12.98
2023-05-19T22:16:48.136Z,12.94
2023-05-19T22:19:15.629Z,12.98
2023-05-19T22:21:42.814Z,13.00
2023-05-19T22:24:09.977Z,12.96
2023-05-19T22:26:37.206Z,12.94
2023-05-19T22:29:04.367Z,12.81
2023-05-19T22:31:31.542Z,12.75
2023-05-19T22:33:58.710Z,12.76
2023-05-19T22:36:25.870Z,12.73
2023-05-19T22:38:53.006Z,12.70
2023-05-19T22:41:20.140Z,12.69
2023-05-19T22:43:47.218Z,12.70
2023-05-19T22:46:14.383Z,12.56
2023-05-19T22:48:41.470Z,12.43
2023-05-19T22:51:08.571Z,12.40
2023-05-19T22:53:35.654Z,12.47
2023-05-19T22:56:02.726Z,12.48
2023-05-19T22:58:29.821Z,12.53
2023-05-19T23:00:57.196Z,12.60
2023-05-19T23:03:24.369Z,12.66
2023-05-19T23:05:51.508Z,12.71
2023-05-19T23:08:18.676Z,12.71
2023-05-19T23:10:46.142Z,12.78
2023-05-19T23:13:14.837Z,12.82
2023-05-19T23:15:41.997Z,12.84
2023-05-19T23:18:09.184Z,12.84
2023-05-19T23:20:36.380Z,12.87
2023-05-19T23:23:03.513Z,12.88
2023-05-19T23:25:30.671Z,12.89
2023-05-19T23:27:58.009Z,12.86
2023-05-19T23:30:25.119Z,12.85
2023-05-19T23:32:52.972Z,12.84
2023-05-19T23:35:20.561Z,12.87
2023-05-19T23:37:48.382Z,12.87
2023-05-19T23:40:15.517Z,12.83
2023-05-19T23:42:44.472Z,12.82
2023-05-19T23:45:11.724Z,12.83
2023-05-19T23:47:39.007Z,12.83
2023-05-19T23:50:06.590Z,12.84
2023-05-19T23:52:33.721Z,12.79
2023-05-19T23:55:01.286Z,12.77
2023-05-19T23:57:28.372Z,12.77
2023-05-19T23:59:55.600Z,12.75
